Time;durP1;ratioP1;P1;durP2;ratioP2;P2;SDS_P1;SDS_P2;PMS_P1;PMS_P2;Temp;Humidity;BMP_temperature;BMP_pressure;BME280_temperature;BME280_humidity;BME280_pressure;Samples;Min_cycle;Max_cycle;Signal;HPM_P1;HPM_P2
2022/11/20 00:01:20;;;;;;;19.27;12.63;;;1.90;99.90;;;;;;5092138;28;20204;-75
2022/11/20 00:03:48;;;;;;;22.87;13.43;;;1.90;99.90;;;;;;5096044;28;20697;-75
2022/11/20 00:06:17;;;;;;;21.17;13.73;;;1.90;99.90;;;;;;5095949;28;20197;-75
2022/11/20 00:08:44;;;;;;;23.63;14.37;;;1.90;99.90;;;;;;5096347;28;20193;-75
2022/11/20 00:11:14;;;;;;;24.57;14.40;;;1.90;99.90;;;;;;5096169;28;20654;-74
2022/11/20 00:13:42;;;;;;;23.10;13.70;;;1.90;99.90;;;;;;5096413;28;20625;-75
2022/11/20 00:16:12;;;;;;;24.17;13.73;;;1.90;99.90;;;;;;5096038;28;20197;-74
2022/11/20 00:18:39;;;;;;;26.10;13.70;;;1.90;99.90;;;;;;5096121;28;20192;-74
2022/11/20 00:21:07;;;;;;;23.27;13.27;;;1.90;99.90;;;;;;5096007;28;20244;-74
2022/11/20 00:23:35;;;;;;;24.93;13.27;;;1.80;99.90;;;;;;5095975;28;20231;-74
2022/11/20 00:26:04;;;;;;;25.17;13.87;;;1.80;99.90;;;;;;5095683;28;20194;-74
2022/11/20 00:28:32;;;;;;;22.97;13.53;;;1.80;99.90;;;;;;5079113;28;20230;-74
2022/11/20 00:31:04;;;;;;;20.97;12.80;;;1.70;99.90;;;;;;5095448;28;20232;-74
2022/11/20 00:33:31;;;;;;;23.03;12.83;;;1.70;99.90;;;;;;5095382;28;20274;-74
2022/11/20 00:36:02;;;;;;;20.73;13.30;;;1.70;99.90;;;;;;5096035;28;20257;-74
2022/11/20 00:38:29;;;;;;;22.97;13.40;;;1.70;99.90;;;;;;5095321;28;20219;-74
2022/11/20 00:40:57;;;;;;;21.80;12.97;;;1.70;99.90;;;;;;5095707;28;20561;-74
2022/11/20 00:43:24;;;;;;;21.03;12.50;;;1.70;99.90;;;;;;5095513;28;20221;-74
2022/11/20 00:45:57;;;;;;;22.93;13.03;;;1.70;99.90;;;;;;5095693;28;20199;-74
2022/11/20 00:48:24;;;;;;;22.67;13.03;;;1.60;99.90;;;;;;5095790;28;20245;-74
2022/11/20 00:50:51;;;;;;;22.53;12.83;;;1.70;99.90;;;;;;5095164;28;20183;-74
2022/11/20 00:53:18;;;;;;;21.83;13.30;;;1.60;99.90;;;;;;5095457;28;20621;-74
2022/11/20 00:55:54;;;;;;;24.30;13.70;;;1.70;99.90;;;;;;5095023;28;20245;-73
2022/11/20 00:58:21;;;;;;;21.63;12.57;;;1.60;99.90;;;;;;5095444;28;20242;-74
2022/11/20 01:00:49;;;;;;;21.53;12.37;;;1.60;99.90;;;;;;5095216;28;20204;-74
2022/11/20 01:03:17;;;;;;;21.37;12.63;;;1.60;99.90;;;;;;5094926;28;20746;-74
2022/11/20 01:05:44;;;;;;;23.90;13.50;;;1.60;99.90;;;;;;5095238;28;20228;-74
2022/11/20 01:08:11;;;;;;;23.07;13.77;;;1.60;99.90;;;;;;5095162;28;20563;-74
2022/11/20 01:10:38;;;;;;;20.43;12.60;;;1.60;99.90;;;;;;5095076;28;20197;-74
2022/11/20 01:15:50;;;;;;;20.80;12.27;;;1.60;99.90;;;;;;5094840;28;20204;-74
2022/11/20 01:18:18;;;;;;;22.40;12.57;;;1.70;99.90;;;;;;5095014;28;20257;-74
2022/11/20 01:20:45;;;;;;;20.63;11.90;;;1.70;99.90;;;;;;5094890;28;20192;-74
2022/11/20 01:23:12;;;;;;;21.70;12.53;;;1.70;99.90;;;;;;5094872;28;20231;-74
2022/11/20 01:25:39;;;;;;;23.33;12.43;;;1.70;99.90;;;;;;5094742;28;20198;-74
2022/11/20 01:28:06;;;;;;;19.70;12.23;;;1.70;99.90;;;;;;5080518;28;20192;-74
2022/11/20 01:30:33;;;;;;;19.73;11.87;;;1.70;99.90;;;;;;5094371;28;20701;-74
2022/11/20 01:33:00;;;;;;;21.40;12.37;;;1.70;99.90;;;;;;5093604;28;20258;-74
2022/11/20 01:35:29;;;;;;;19.83;11.33;;;1.70;99.90;;;;;;5094599;28;20195;-74
2022/11/20 01:37:55;;;;;;;17.83;11.67;;;1.70;99.90;;;;;;5094588;28;20208;-74
2022/11/20 01:40:22;;;;;;;19.83;11.83;;;1.60;99.90;;;;;;5093780;28;20189;-74
2022/11/20 01:46:14;;;;;;;20.77;11.80;;;1.60;99.90;;;;;;5081320;28;20202;-74
2022/11/20 01:48:47;;;;;;;20.20;11.97;;;1.60;99.90;;;;;;5094342;28;20275;-74
2022/11/20 01:51:21;;;;;;;22.10;12.67;;;1.60;99.90;;;;;;5094109;28;20654;-74
2022/11/20 01:53:49;;;;;;;21.13;12.40;;;1.70;99.90;;;;;;5093934;28;20197;-74
2022/11/20 01:56:18;;;;;;;22.10;12.90;;;1.60;99.90;;;;;;5094244;28;20196;-74
2022/11/20 01:58:49;;;;;;;27.40;13.50;;;1.60;99.90;;;;;;5094099;28;20202;-74
2022/11/20 02:01:17;;;;;;;23.47;13.40;;;1.60;99.90;;;;;;5094288;28;20190;-74
2022/11/20 02:03:45;;;;;;;22.00;13.00;;;1.70;99.90;;;;;;5093982;28;20213;-74
2022/11/20 02:06:18;;;;;;;22.20;13.10;;;1.70;99.90;;;;;;5094158;28;20197;-76
2022/11/20 02:08:45;;;;;;;21.77;13.37;;;1.70;99.90;;;;;;5094039;28;20221;-76
2022/11/20 02:11:13;;;;;;;20.30;12.67;;;1.70;99.90;;;;;;5093705;28;20222;-76
2022/11/20 02:13:43;;;;;;;20.63;12.63;;;1.70;99.90;;;;;;5093923;28;20285;-75
2022/11/20 02:16:13;;;;;;;22.90;12.70;;;1.70;99.90;;;;;;5093713;28;20275;-76
2022/11/20 02:18:41;;;;;;;22.37;13.40;;;1.70;99.90;;;;;;5093915;28;20195;-76
2022/11/20 02:21:14;;;;;;;19.50;12.17;;;1.70;99.90;;;;;;5085039;28;20646;-76
2022/11/20 02:23:54;;;;;;;18.83;12.17;;;1.70;99.90;;;;;;5093376;28;20221;-75
2022/11/20 02:26:24;;;;;;;20.90;12.20;;;1.70;99.90;;;;;;5093044;28;20598;-76
2022/11/20 02:28:51;;;;;;;22.50;12.50;;;1.70;99.90;;;;;;5093703;28;20196;-75
2022/11/20 02:31:18;;;;;;;22.07;12.07;;;1.70;99.90;;;;;;5079044;28;20676;-76
2022/11/20 02:33:45;;;;;;;20.10;11.53;;;1.80;99.90;;;;;;5093549;28;20540;-75
2022/11/20 02:36:16;;;;;;;17.43;11.07;;;1.80;99.90;;;;;;5093368;28;20201;-76
2022/11/20 02:38:44;;;;;;;20.57;11.63;;;1.70;99.90;;;;;;5082902;28;20651;-76
2022/11/20 02:41:12;;;;;;;19.30;11.57;;;1.70;99.90;;;;;;5089927;28;20603;-76
2022/11/20 02:43:39;;;;;;;19.47;11.77;;;1.70;99.90;;;;;;5092998;28;20215;-75
2022/11/20 02:46:08;;;;;;;18.97;11.30;;;1.70;99.90;;;;;;5092878;28;20218;-76
2022/11/20 02:48:35;;;;;;;19.43;11.70;;;1.80;99.90;;;;;;5093292;28;20190;-75
2022/11/20 02:51:02;;;;;;;19.77;12.17;;;1.80;99.90;;;;;;5093445;28;20231;-76
2022/11/20 02:53:29;;;;;;;20.37;11.83;;;1.80;99.90;;;;;;5093293;28;20244;-76
2022/11/20 02:55:56;;;;;;;18.83;12.03;;;1.80;99.90;;;;;;5081403;28;20208;-76
2022/11/20 02:58:25;;;;;;;20.13;11.80;;;1.80;99.90;;;;;;5090846;28;20189;-75
2022/11/20 03:00:53;;;;;;;16.97;11.60;;;1.80;99.90;;;;;;5093153;28;20192;-75
2022/11/20 03:03:20;;;;;;;19.33;11.80;;;1.80;99.90;;;;;;5092855;28;20605;-76
2022/11/20 03:05:47;;;;;;;18.60;11.80;;;1.80;99.90;;;;;;5092726;28;20246;-76
2022/11/20 03:08:14;;;;;;;19.73;11.73;;;1.80;99.90;;;;;;5092786;28;20593;-75
2022/11/20 03:10:41;;;;;;;18.00;11.43;;;1.80;99.90;;;;;;5092969;28;20246;-75
2022/11/20 03:13:08;;;;;;;18.23;11.37;;;1.80;99.90;;;;;;5092926;28;20257;-75
2022/11/20 03:15:38;;;;;;;18.67;11.53;;;1.80;99.90;;;;;;5092358;28;20714;-75
2022/11/20 03:18:06;;;;;;;19.23;11.40;;;1.80;99.90;;;;;;5092876;28;20708;-76
2022/11/20 03:20:34;;;;;;;17.90;11.23;;;1.90;99.90;;;;;;5092806;28;20197;-76
2022/11/20 03:23:01;;;;;;;18.77;11.00;;;1.90;99.90;;;;;;5092458;28;20681;-76
2022/11/20 03:25:29;;;;;;;18.60;11.27;;;1.90;92.20;;;;;;5092490;28;20204;-75
2022/11/20 03:27:56;;;;;;;19.10;10.33;;;1.90;87.30;;;;;;5092692;28;20197;-75
2022/11/20 03:30:23;;;;;;;16.87;10.00;;;1.90;86.50;;;;;;5077867;28;20282;-75
2022/11/20 03:32:54;;;;;;;18.17;10.83;;;1.90;85.60;;;;;;5092341;28;20191;-75
2022/11/20 03:35:21;;;;;;;18.73;11.37;;;1.80;99.90;;;;;;5092528;28;20187;-75
2022/11/20 03:37:48;;;;;;;17.20;10.13;;;1.90;99.90;;;;;;5091576;28;20201;-76
2022/11/20 03:40:15;;;;;;;19.67;10.53;;;1.90;84.60;;;;;;5092446;28;20192;-76
2022/11/20 03:42:48;;;;;;;18.47;10.53;;;1.90;78.50;;;;;;5092326;28;20193;-76
2022/11/20 03:45:17;;;;;;;18.83;10.13;;;1.90;75.80;;;;;;5092011;28;20213;-76
2022/11/20 03:47:45;;;;;;;19.03;10.67;;;1.80;81.90;;;;;;5092337;28;20246;-76
2022/11/20 03:50:14;;;;;;;19.10;11.33;;;1.90;98.90;;;;;;5092304;28;20198;-76
2022/11/20 03:52:42;;;;;;;19.77;11.73;;;1.80;99.90;;;;;;5091844;28;20198;-76
2022/11/20 03:55:09;;;;;;;21.47;12.03;;;1.80;99.90;;;;;;5092040;28;20190;-75
2022/11/20 03:57:36;;;;;;;22.77;12.33;;;1.80;99.90;;;;;;5092365;28;20603;-76
2022/11/20 04:00:04;;;;;;;22.63;12.10;;;1.80;99.90;;;;;;5092207;28;20228;-75
2022/11/20 04:02:32;;;;;;;19.60;11.63;;;1.80;99.90;;;;;;5092180;28;20254;-76
2022/11/20 04:04:59;;;;;;;19.07;11.03;;;1.90;99.90;;;;;;5091676;28;20224;-76
2022/11/20 04:07:28;;;;;;;18.87;11.57;;;1.80;99.90;;;;;;5092174;28;20198;-76
2022/11/20 04:09:55;;;;;;;20.33;11.80;;;1.80;99.90;;;;;;5091973;28;20245;-76
2022/11/20 04:12:22;;;;;;;20.67;11.97;;;1.80;99.90;;;;;;5092146;28;20239;-76
2022/11/20 04:14:49;;;;;;;17.93;11.07;;;1.80;99.90;;;;;;5091941;28;20253;-76
2022/11/20 04:17:16;;;;;;;19.83;11.53;;;1.80;99.90;;;;;;5091770;28;20196;-76
2022/11/20 04:19:43;;;;;;;20.80;10.60;;;1.80;99.90;;;;;;5091690;28;20659;-76
2022/11/20 04:22:12;;;;;;;19.43;11.50;;;1.80;98.40;;;;;;5091992;28;20194;-75
2022/11/20 04:24:40;;;;;;;20.27;10.87;;;1.80;99.90;;;;;;5091949;28;20221;-76
2022/11/20 04:27:07;;;;;;;18.33;10.40;;;1.80;99.90;;;;;;5092111;28;20196;-75
2022/11/20 04:29:34;;;;;;;15.90;9.93;;;1.80;99.90;;;;;;5084605;28;20197;-76
2022/11/20 04:32:01;;;;;;;19.83;10.80;;;1.70;99.90;;;;;;5084945;28;20703;-75
2022/11/20 04:34:28;;;;;;;18.93;11.30;;;1.70;99.90;;;;;;5091944;28;20659;-75
2022/11/20 04:36:55;;;;;;;19.83;11.37;;;1.70;99.90;;;;;;5091503;28;20204;-75
2022/11/20 04:39:22;;;;;;;17.27;10.67;;;1.70;99.90;;;;;;5091830;28;20197;-75
2022/11/20 04:42:28;;;;;;;19.07;10.83;;;1.70;99.90;;;;;;5091772;28;20258;-76
2022/11/20 04:44:38;;;;;;;19.10;11.03;;;1.60;99.90;;;;;;5091648;28;20246;-75
2022/11/20 04:47:05;;;;;;;20.57;11.53;;;1.70;99.90;;;;;;5091633;28;20230;-75
2022/11/20 04:49:32;;;;;;;20.50;11.30;;;1.60;99.90;;;;;;5095246;28;20192;-76
2022/11/20 04:51:59;;;;;;;19.43;11.40;;;1.60;99.90;;;;;;5095181;28;20224;-76
2022/11/20 04:54:26;;;;;;;19.00;11.43;;;1.60;99.90;;;;;;5095542;28;20237;-75
2022/11/20 04:56:54;;;;;;;20.60;11.47;;;1.60;99.90;;;;;;5095534;28;20201;-75
2022/11/20 04:59:21;;;;;;;20.93;12.33;;;1.60;99.90;;;;;;5095452;28;20264;-75
2022/11/20 05:01:48;;;;;;;19.63;11.37;;;1.60;99.90;;;;;;5095064;28;20256;-76
2022/11/20 05:04:15;;;;;;;19.20;11.27;;;1.60;99.90;;;;;;5094749;28;20216;-76
2022/11/20 05:06:42;;;;;;;20.30;12.00;;;1.60;99.90;;;;;;5095093;28;20191;-75
2022/11/20 05:09:09;;;;;;;19.40;11.50;;;1.60;99.90;;;;;;5095167;28;20193;-76
2022/11/20 05:11:37;;;;;;;20.57;11.73;;;1.60;99.90;;;;;;5095153;28;20195;-75
2022/11/20 05:14:06;;;;;;;22.53;12.50;;;1.60;99.90;;;;;;5095005;28;20711;-75
2022/11/20 05:16:35;;;;;;;20.33;11.83;;;1.50;99.90;;;;;;5095112;28;20226;-76
2022/11/20 05:19:02;;;;;;;21.63;12.10;;;1.50;99.90;;;;;;5094777;28;20199;-76
2022/11/20 05:21:31;;;;;;;22.83;12.87;;;1.50;99.90;;;;;;5094879;28;20192;-76
2022/11/20 05:23:58;;;;;;;20.13;12.30;;;1.50;99.90;;;;;;5094875;28;20272;-76
2022/11/20 05:26:25;;;;;;;22.23;12.63;;;1.50;99.90;;;;;;5094962;28;20191;-76
2022/11/20 05:28:52;;;;;;;23.57;12.90;;;1.50;99.90;;;;;;5093221;28;20193;-76
2022/11/20 05:31:22;;;;;;;22.17;12.43;;;1.50;99.90;;;;;;5082110;28;20217;-75
2022/11/20 05:33:49;;;;;;;23.43;12.60;;;1.50;99.90;;;;;;5094670;28;20192;-76
2022/11/20 05:36:17;;;;;;;21.53;12.47;;;1.50;99.90;;;;;;5094739;28;20245;-76
2022/11/20 05:38:45;;;;;;;24.37;13.20;;;1.50;99.90;;;;;;5094733;28;20197;-75
2022/11/20 05:41:15;;;;;;;23.43;13.00;;;1.50;99.90;;;;;;5094450;28;20193;-76
2022/11/20 05:43:44;;;;;;;21.47;12.80;;;1.50;99.90;;;;;;5094539;28;20201;-76
2022/11/20 05:46:13;;;;;;;25.30;13.37;;;1.60;99.90;;;;;;5094024;28;20189;-76
2022/11/20 05:48:43;;;;;;;24.20;13.33;;;1.60;99.90;;;;;;5094223;28;20242;-76
2022/11/20 05:51:12;;;;;;;23.70;13.23;;;1.50;99.90;;;;;;5094051;28;20182;-76
2022/11/20 05:53:40;;;;;;;25.37;14.00;;;1.50;99.90;;;;;;5094445;28;20199;-76
2022/11/20 05:56:10;;;;;;;25.33;13.67;;;1.50;99.90;;;;;;5094386;28;20228;-75
2022/11/20 05:58:38;;;;;;;24.27;13.60;;;1.50;99.90;;;;;;5094211;28;20654;-75
2022/11/20 06:01:06;;;;;;;26.20;13.73;;;1.50;99.90;;;;;;5093381;28;20193;-75
2022/11/20 06:03:33;;;;;;;27.07;15.40;;;1.50;99.90;;;;;;5094267;28;20196;-75
2022/11/20 06:06:03;;;;;;;27.70;15.87;;;1.50;99.90;;;;;;5093769;28;20220;-75
2022/11/20 06:08:30;;;;;;;27.97;14.77;;;1.50;99.90;;;;;;5093978;28;20549;-75
2022/11/20 06:10:57;;;;;;;26.90;14.70;;;1.50;99.90;;;;;;5094094;28;20199;-75
2022/11/20 06:13:25;;;;;;;28.33;15.17;;;1.50;99.90;;;;;;5093854;28;20192;-75
2022/11/20 06:15:53;;;;;;;26.57;15.33;;;1.50;99.90;;;;;;5093956;28;20192;-75
2022/11/20 06:18:20;;;;;;;27.10;14.57;;;1.50;99.90;;;;;;5093747;28;20204;-76
2022/11/20 06:20:48;;;;;;;27.47;14.67;;;1.50;99.90;;;;;;5093869;28;20207;-75
2022/11/20 06:23:16;;;;;;;27.73;15.00;;;1.60;99.90;;;;;;5093332;28;20192;-75
2022/11/20 06:25:44;;;;;;;30.43;15.60;;;1.50;99.90;;;;;;5093417;28;20268;-76
2022/11/20 06:28:11;;;;;;;28.43;15.80;;;1.50;99.90;;;;;;5093700;28;20196;-75
2022/11/20 06:30:38;;;;;;;28.07;14.97;;;1.50;99.90;;;;;;5079326;28;20229;-75
2022/11/20 06:33:05;;;;;;;28.63;15.83;;;1.50;99.90;;;;;;5093898;28;20196;-75
2022/11/20 06:35:32;;;;;;;28.27;15.60;;;1.60;99.90;;;;;;5093078;28;20195;-75
2022/11/20 06:37:59;;;;;;;29.40;16.13;;;1.60;99.90;;;;;;5093220;28;20931;-75
2022/11/20 06:40:27;;;;;;;28.80;15.50;;;1.60;99.90;;;;;;5093532;28;20260;-75
2022/11/20 06:42:55;;;;;;;28.30;15.57;;;1.60;98.10;;;;;;5092998;28;20707;-75
2022/11/20 06:45:22;;;;;;;29.47;15.90;;;1.60;81.90;;;;;;5093374;28;20221;-75
2022/11/20 06:47:49;;;;;;;29.40;16.27;;;1.60;82.80;;;;;;5093190;28;20201;-75
2022/11/20 06:50:16;;;;;;;38.87;19.23;;;1.70;69.60;;;;;;5093185;28;20266;-75
2022/11/20 06:52:43;;;;;;;47.57;21.70;;;1.60;64.90;;;;;;5093261;28;20192;-75
2022/11/20 06:55:10;;;;;;;34.47;17.53;;;1.70;98.30;;;;;;5093244;28;20193;-75
2022/11/20 06:57:40;;;;;;;30.43;16.37;;;1.70;99.90;;;;;;5093025;28;20197;-75
2022/11/20 07:00:08;;;;;;;33.70;16.60;;;1.70;92.70;;;;;;5093032;28;20290;-75
2022/11/20 07:02:35;;;;;;;35.97;18.33;;;1.80;29.00;;;;;;5092652;28;20188;-75
2022/11/20 07:05:02;;;;;;;29.73;16.67;;;1.80;9.30;;;;;;5092694;28;20561;-75
2022/11/20 07:07:29;;;;;;;31.03;16.13;;;1.80;30.70;;;;;;5092828;28;20200;-75
2022/11/20 07:09:56;;;;;;;32.10;17.00;;;1.80;13.20;;;;;;5093033;28;20209;-75
2022/11/20 07:12:23;;;;;;;34.27;17.97;;;1.90;1.00;;;;;;5092423;28;20545;-75
2022/11/20 07:14:54;;;;;;;35.00;18.07;;;1.90;1.00;;;;;;5092917;28;20193;-75
2022/11/20 07:17:21;;;;;;;33.27;18.20;;;1.90;1.00;;;;;;5092556;28;20700;-75
2022/11/20 07:19:48;;;;;;;31.70;18.53;;;2.00;1.00;;;;;;5092365;28;20708;-75
2022/11/20 07:22:15;;;;;;;33.57;16.97;;;2.00;1.00;;;;;;5092635;28;20231;-75
2022/11/20 07:24:42;;;;;;;38.43;18.10;;;2.00;1.00;;;;;;5095594;28;20216;-76
2022/11/20 07:27:09;;;;;;;36.03;18.73;;;2.00;1.00;;;;;;5092900;28;20192;-75
2022/11/20 07:29:36;;;;;;;35.23;18.23;;;2.10;1.00;;;;;;5085078;28;20241;-76
2022/11/20 07:32:05;;;;;;;37.73;18.77;;;2.10;1.00;;;;;;5090327;28;20236;-75
2022/11/20 07:34:32;;;;;;;36.80;19.20;;;2.10;1.00;;;;;;5092241;28;20189;-75
2022/11/20 07:36:59;;;;;;;35.17;18.80;;;2.10;1.00;;;;;;5092389;28;20204;-75
2022/11/20 07:39:26;;;;;;;37.07;20.27;;;2.10;1.00;;;;;;5092448;28;20220;-75
2022/11/20 07:41:53;;;;;;;46.50;24.00;;;2.20;1.00;;;;;;5092331;28;20196;-75
2022/11/20 07:44:20;;;;;;;46.17;23.90;;;2.20;1.00;;;;;;5092346;28;20238;-75
2022/11/20 07:46:47;;;;;;;41.50;21.63;;;2.20;1.00;;;;;;5092403;28;20283;-75
2022/11/20 07:49:15;;;;;;;35.20;18.47;;;2.30;1.00;;;;;;5093764;28;20206;-75
2022/11/20 07:51:42;;;;;;;35.50;18.93;;;2.40;1.00;;;;;;5092612;28;20704;-74
2022/11/20 07:54:09;;;;;;;37.40;19.17;;;2.40;1.00;;;;;;5091149;28;20217;-75
2022/11/20 07:56:37;;;;;;;40.93;20.47;;;2.40;1.00;;;;;;5098943;28;20207;-74
2022/11/20 07:59:04;;;;;;;37.90;19.70;;;2.40;1.00;;;;;;5091563;28;20201;-74
2022/11/20 08:01:32;;;;;;;35.70;19.60;;;2.40;1.00;;;;;;5094877;28;20656;-74
2022/11/20 08:03:59;;;;;;;33.33;19.20;;;2.40;1.00;;;;;;5091691;28;20191;-74
2022/11/20 08:06:28;;;;;;;35.67;18.27;;;2.40;1.00;;;;;;5091349;28;20207;-74
2022/11/20 08:08:55;;;;;;;37.00;20.50;;;2.50;1.00;;;;;;5092413;28;20598;-75
2022/11/20 08:14:15;;;;;;;32.20;17.57;;;2.60;1.00;;;;;;5097129;28;20274;-76
2022/11/20 08:16:44;;;;;;;31.97;17.53;;;2.70;1.00;;;;;;5092148;28;20193;-77
2022/11/20 08:19:12;;;;;;;34.53;17.60;;;2.80;1.00;;;;;;5091110;28;20228;-74
2022/11/20 08:21:41;;;;;;;36.37;20.13;;;2.90;1.00;;;;;;5095879;28;20220;-76
2022/11/20 08:24:09;;;;;;;28.07;17.03;;;3.00;1.00;;;;;;5095360;28;20199;-76
2022/11/20 08:26:37;;;;;;;35.80;22.10;;;3.10;1.00;;;;;;5106820;28;20730;-76
2022/11/20 08:29:05;;;;;;;28.27;16.87;;;3.20;1.00;;;;;;5097233;28;20602;-76
2022/11/20 08:31:33;;;;;;;32.30;18.57;;;3.30;99.90;;;;;;5098165;28;20342;-78
2022/11/20 08:34:00;;;;;;;35.07;19.13;;;3.30;99.90;;;;;;5095917;28;20195;-76
2022/11/20 08:36:28;;;;;;;34.83;18.47;;;3.30;99.90;;;;;;5099127;28;20202;-75
2022/11/20 08:38:57;;;;;;;41.33;22.20;;;3.40;99.90;;;;;;5095519;28;20203;-75
2022/11/20 08:41:27;;;;;;;37.90;21.83;;;3.30;99.90;;;;;;5095848;28;20195;-75
2022/11/20 08:43:57;;;;;;;42.47;22.17;;;3.40;99.90;;;;;;5102119;28;20202;-76
2022/11/20 08:46:25;;;;;;;36.57;21.00;;;3.40;99.90;;;;;;5098326;28;20219;-75
2022/11/20 08:48:52;;;;;;;33.57;18.67;;;3.40;99.90;;;;;;5094917;28;20202;-74
2022/11/20 08:51:21;;;;;;;28.77;16.53;;;3.40;99.90;;;;;;5095490;28;20203;-75
2022/11/20 08:53:49;;;;;;;32.37;17.97;;;3.50;99.90;;;;;;5095097;28;20217;-75
2022/11/20 08:56:18;;;;;;;29.67;18.17;;;3.50;99.90;;;;;;5098736;28;20232;-75
2022/11/20 08:58:45;;;;;;;36.83;23.57;;;3.50;99.90;;;;;;5095318;28;20645;-75
2022/11/20 09:01:12;;;;;;;34.57;19.23;;;3.60;92.90;;;;;;5096268;28;20191;-75
2022/11/20 09:03:41;;;;;;;33.70;19.43;;;3.60;1.00;;;;;;5100573;28;20203;-78
2022/11/20 09:06:09;;;;;;;39.13;21.37;;;3.60;1.00;;;;;;5099068;28;20250;-77
2022/11/20 09:08:36;;;;;;;28.40;16.73;;;3.60;1.00;;;;;;5098446;28;20187;-76
2022/11/20 09:11:05;;;;;;;32.40;20.80;;;3.60;1.00;;;;;;5090361;28;20278;-77
2022/11/20 09:13:34;;;;;;;37.37;24.73;;;3.60;1.00;;;;;;5098807;28;20214;-75
2022/11/20 09:16:03;;;;;;;38.07;20.47;;;3.70;1.00;;;;;;5098035;28;20611;-75
2022/11/20 09:18:31;;;;;;;27.33;17.37;;;3.70;1.00;;;;;;5101581;28;20607;-75
2022/11/20 09:21:03;;;;;;;30.77;17.73;;;3.70;1.00;;;;;;5100025;28;20167;-76
2022/11/20 09:23:33;;;;;;;29.03;16.97;;;3.70;1.00;;;;;;5100561;28;20199;-75
2022/11/20 09:26:03;;;;;;;33.97;18.93;;;3.80;1.00;;;;;;5102024;28;20218;-76
2022/11/20 09:28:33;;;;;;;31.87;18.50;;;3.90;1.00;;;;;;5102541;28;20195;-77
2022/11/20 09:31:05;;;;;;;37.30;20.83;;;3.90;1.00;;;;;;5092307;28;20223;-75
2022/11/20 09:33:32;;;;;;;31.67;19.43;;;4.00;1.00;;;;;;5097142;28;20187;-75
2022/11/20 09:36:00;;;;;;;36.17;23.23;;;4.00;1.00;;;;;;5096021;28;20604;-74
2022/11/20 09:38:27;;;;;;;30.67;19.50;;;4.00;1.00;;;;;;5094071;28;20252;-74
2022/11/20 09:40:58;;;;;;;29.40;18.33;;;4.10;1.00;;;;;;5103135;28;20252;-75
2022/11/20 09:43:38;;;;;;;30.00;16.57;;;4.20;1.00;;;;;;5105393;28;20187;-76
2022/11/20 09:46:15;;;;;;;31.93;17.67;;;4.50;1.00;;;;;;5099059;28;20647;-74
2022/11/20 09:49:15;;;;;;;26.80;15.40;;;4.60;1.00;;;;;;5093856;28;20198;-75
2022/11/20 09:51:54;;;;;;;33.13;18.47;;;4.80;1.00;;;;;;5098243;28;20274;-76
2022/11/20 09:54:26;;;;;;;29.07;15.17;;;5.00;99.90;;;;;;5104279;28;20592;-78
2022/11/20 09:56:59;;;;;;;24.80;15.73;;;5.10;99.90;;;;;;5101190;28;20185;-74
2022/11/20 09:59:36;;;;;;;24.63;16.13;;;5.10;99.90;;;;;;5096112;28;20191;-75
2022/11/20 10:02:17;;;;;;;26.40;16.47;;;5.20;99.90;;;;;;5097445;28;20196;-75
2022/11/20 10:04:49;;;;;;;24.37;15.23;;;5.40;99.90;;;;;;5094084;28;20184;-75
2022/11/20 10:07:24;;;;;;;41.87;30.67;;;5.60;99.90;;;;;;5097167;28;20232;-80
2022/11/20 10:09:54;;;;;;;24.80;16.33;;;5.70;99.90;;;;;;5100980;28;20189;-74
2022/11/20 10:12:33;;;;;;;25.80;16.90;;;5.90;23.40;;;;;;5101671;28;20196;-78
2022/11/20 10:15:18;;;;;;;25.17;15.27;;;6.10;1.00;;;;;;5097644;28;20208;-75
2022/11/20 10:18:10;;;;;;;25.30;15.87;;;6.30;1.00;;;;;;5093833;28;20202;-76
2022/11/20 10:20:47;;;;;;;24.60;16.37;;;6.40;1.00;;;;;;5094043;28;20592;-75
2022/11/20 10:23:40;;;;;;;22.90;14.60;;;6.30;1.00;;;;;;5096003;28;20661;-78
2022/11/20 10:26:22;;;;;;;24.00;16.23;;;6.30;1.00;;;;;;5106587;28;20227;-77
2022/11/20 10:29:02;;;;;;;31.33;18.43;;;6.30;1.00;;;;;;5095125;28;20660;-76
2022/11/20 10:31:35;;;;;;;24.17;15.33;;;6.20;1.00;;;;;;5091048;28;20311;-76
2022/11/20 10:34:09;;;;;;;31.87;17.40;;;6.10;1.00;;;;;;5094402;28;20192;-76
2022/11/20 10:36:43;;;;;;;34.07;21.23;;;6.00;1.00;;;;;;5108297;28;20280;-76
2022/11/20 10:39:22;;;;;;;37.93;25.90;;;6.00;1.00;;;;;;5094737;28;20192;-78
2022/11/20 10:41:52;;;;;;;30.33;19.87;;;5.90;1.00;;;;;;5092112;28;20203;-76
2022/11/20 10:47:05;;;;;;;25.80;16.90;;;6.00;1.00;;;;;;5092129;28;20201;-75
2022/11/20 10:49:34;;;;;;;33.93;20.43;;;6.00;1.00;;;;;;5096179;28;20685;-77
2022/11/20 10:52:14;;;;;;;25.53;16.37;;;6.00;1.00;;;;;;5093981;28;20189;-79
2022/11/20 10:54:48;;;;;;;23.50;15.83;;;6.00;1.00;;;;;;5087930;28;20737;-77
2022/11/20 10:57:26;;;;;;;24.67;16.53;;;6.10;1.00;;;;;;5086157;28;20632;-75
2022/11/20 11:00:03;;;;;;;23.93;15.30;;;6.20;1.00;;;;;;5092463;28;20194;-75
2022/11/20 11:02:40;;;;;;;24.93;17.03;;;6.30;1.00;;;;;;5088513;28;20187;-76
2022/11/20 11:05:25;;;;;;;26.07;15.93;;;6.40;1.00;;;;;;5080026;28;20185;-76
2022/11/20 11:07:55;;;;;;;23.90;15.50;;;6.60;1.00;;;;;;5079646;28;20195;-74
2022/11/20 11:10:29;;;;;;;24.77;15.40;;;6.70;1.00;;;;;;5074602;28;20195;-77
2022/11/20 11:12:56;;;;;;;29.23;17.53;;;6.70;1.00;;;;;;5074143;28;20247;-76
2022/11/20 11:15:28;;;;;;;32.30;20.40;;;6.60;1.00;;;;;;5077614;28;20595;-76
2022/11/20 11:17:55;;;;;;;32.20;20.17;;;6.60;99.90;;;;;;5074704;28;20246;-77
2022/11/20 11:20:25;;;;;;;31.70;19.00;;;6.50;99.90;;;;;;5073708;28;20202;-77
2022/11/20 11:22:56;;;;;;;31.17;19.87;;;6.40;99.90;;;;;;5072434;28;20195;-77
2022/11/20 11:25:28;;;;;;;27.20;17.47;;;6.30;99.90;;;;;;5089459;28;20679;-76
2022/11/20 11:27:57;;;;;;;31.40;17.17;;;6.30;99.90;;;;;;5090925;28;20194;-76
2022/11/20 11:30:26;;;;;;;32.13;19.63;;;6.30;99.90;;;;;;5079017;28;20228;-76
2022/11/20 11:33:06;;;;;;;42.67;22.73;;;6.30;99.90;;;;;;5077243;28;20194;-75
2022/11/20 11:35:45;;;;;;;28.10;18.13;;;6.20;99.90;;;;;;5076408;28;20194;-75
2022/11/20 11:38:17;;;;;;;25.20;16.57;;;6.10;99.90;;;;;;5075773;28;20284;-77
2022/11/20 11:40:45;;;;;;;42.47;29.00;;;6.00;99.90;;;;;;5076309;28;20222;-76
2022/11/20 11:46:16;;;;;;;42.57;26.57;;;5.90;99.90;;;;;;5084807;28;20218;-75
2022/11/20 11:48:43;;;;;;;30.80;19.43;;;5.90;99.90;;;;;;5071879;28;20188;-76
2022/11/20 11:51:11;;;;;;;30.10;19.70;;;5.80;99.90;;;;;;5073378;28;20613;-74
2022/11/20 11:53:42;;;;;;;33.23;19.47;;;5.70;99.90;;;;;;5070934;28;20197;-75
2022/11/20 11:56:12;;;;;;;44.70;24.97;;;5.60;99.90;;;;;;5073690;28;20229;-75
2022/11/20 11:58:47;;;;;;;43.30;26.03;;;5.50;99.90;;;;;;5070407;28;20188;-75
2022/11/20 12:01:33;;;;;;;44.07;27.97;;;5.40;99.90;;;;;;5070638;28;20196;-75
2022/11/20 12:04:06;;;;;;;37.67;23.30;;;5.20;99.90;;;;;;5070284;28;20284;-75
2022/11/20 12:06:37;;;;;;;33.43;18.53;;;5.10;99.90;;;;;;5079621;28;20289;-76
2022/11/20 12:09:09;;;;;;;26.47;17.03;;;5.00;99.90;;;;;;5077217;28;20220;-76
2022/11/20 12:11:44;;;;;;;26.47;17.43;;;4.90;1.00;;;;;;5072428;28;20549;-77
2022/11/20 12:14:19;;;;;;;31.90;19.80;;;4.90;1.00;;;;;;5075685;28;20557;-76
2022/11/20 12:16:47;;;;;;;25.17;16.53;;;4.80;1.00;;;;;;5073033;28;20652;-76
2022/11/20 12:19:15;;;;;;;23.07;14.57;;;4.80;1.00;;;;;;5070065;28;20291;-77
2022/11/20 12:21:53;;;;;;;26.20;15.60;;;4.70;1.00;;;;;;5072631;28;20197;-76
2022/11/20 12:24:45;;;;;;;27.87;16.03;;;4.60;1.00;;;;;;5072131;28;20245;-76
2022/11/20 12:27:45;;;;;;;27.37;18.17;;;4.50;1.00;;;;;;5075117;28;20195;-78
2022/11/20 12:30:15;;;;;;;25.17;14.50;;;4.40;1.00;;;;;;5079017;28;20238;-76
2022/11/20 12:33:05;;;;;;;31.67;17.70;;;4.40;1.00;;;;;;5070002;28;20659;-77
2022/11/20 12:35:49;;;;;;;28.27;16.43;;;4.30;1.00;;;;;;5073850;28;21020;-77
2022/11/20 12:38:40;;;;;;;31.83;18.00;;;4.30;1.00;;;;;;5072733;28;20188;-78
2022/11/20 12:45:08;;;;;;;30.40;17.43;;;4.20;1.00;;;;;;5072049;28;20726;-77
2022/11/20 12:47:21;;;;;;;27.07;16.23;;;4.00;1.00;;;;;;5075840;28;20219;-78
2022/11/20 12:49:57;;;;;;;27.37;16.73;;;4.00;1.00;;;;;;5071861;28;20668;-77
2022/11/20 12:52:39;;;;;;;31.23;18.30;;;3.90;1.00;;;;;;5069778;28;20179;-79
2022/11/20 12:55:18;;;;;;;33.93;18.57;;;3.90;1.00;;;;;;5074354;28;20194;-76
2022/11/20 12:57:52;;;;;;;37.17;19.87;;;3.80;1.00;;;;;;5072000;28;20180;-77
2022/11/20 13:00:22;;;;;;;33.03;18.30;;;3.80;1.00;;;;;;5071967;28;20210;-78
2022/11/20 13:03:36;;;;;;;27.77;17.53;;;3.70;1.00;;;;;;5076175;28;20195;-75
2022/11/20 13:06:13;;;;;;;30.70;16.47;;;3.60;1.00;;;;;;5021815;28;20193;-77
2022/11/20 13:08:42;;;;;;;28.27;16.97;;;3.50;1.00;;;;;;5025484;28;20197;-79
2022/11/20 13:11:18;;;;;;;28.87;17.43;;;3.40;1.00;;;;;;5068403;28;20215;-77
2022/11/20 13:14:01;;;;;;;28.07;16.97;;;3.30;1.00;;;;;;5087055;28;20198;-78